Time,TemperatureF,DewpointF,PressureIn,WindDirection,WindDirectionDegrees,WindSpeedMPH,WindSpeedGustMPH,Humidity,HourlyPrecipIn,Conditions,Clouds,dailyrainin,SoftwareType,DateUTC
2013-05-18 00:00:00,68.5,62.1,29.92,ENE,61,1.0,1.0,80,0.00,,,0.00,Wunderground v.1.15,2013-05-18 05:00:00,
2013-05-18 00:15:00,68.0,61.9,29.91,SE,124,1.0,1.0,81,0.00,,,0.00,Wunderground v.1.15,2013-05-18 05:15:00,
2013-05-18 00:20:00,67.8,62.1,29.92,SE,127,0.0,1.0,82,0.00,,,0.00,Wunderground v.1.15,2013-05-18 05:20:00,
2013-05-18 00:25:00,67.7,62.3,29.92,ESE,103,0.0,0.0,83,0.00,,,0.00,Wunderground v.1.15,2013-05-18 05:25:00,
2013-05-18 00:30:00,67.5,62.2,29.92,SSE,157,0.0,0.0,83,0.00,,,0.00,Wunderground v.1.15,2013-05-18 05:30:00,
2013-05-18 00:35:00,67.5,62.2,29.92,ESE,109,0.0,0.0,83,0.00,,,0.00,Wunderground v.1.15,2013-05-18 05:35:00,
2013-05-18 00:40:00,67.3,62.0,29.92,SE,137,0.0,0.0,83,0.00,,,0.00,Wunderground v.1.15,2013-05-18 05:40:00,
2013-05-18 00:45:00,67.3,62.3,29.92,SE,137,0.0,0.0,84,0.00,,,0.00,Wunderground v.1.15,2013-05-18 05:45:00,
2013-05-18 00:55:00,67.0,62.0,29.92,SE,137,0.0,0.0,84,0.00,,,0.00,Wunderground v.1.15,2013-05-18 05:55:00,
2013-05-18 01:05:00,66.8,61.8,29.91,SE,144,0.0,0.0,84,0.00,,,0.00,Wunderground v.1.15,2013-05-18 06:05:00,
2013-05-18 01:10:00,66.8,62.1,29.91,SE,144,0.0,0.0,85,0.00,,,0.00,Wunderground v.1.15,2013-05-18 06:10:00,
2013-05-18 01:15:00,66.7,62.0,29.91,SE,144,0.0,0.0,85,0.00,,,0.00,Wunderground v.1.15,2013-05-18 06:15:00,
2013-05-18 01:20:00,66.7,62.0,29.92,SSE,147,0.0,0.0,85,0.00,,,0.00,Wunderground v.1.15,2013-05-18 06:20:00,
2013-05-18 01:30:00,66.5,62.2,29.92,SSE,147,0.0,0.0,86,0.00,,,0.00,Wunderground v.1.15,2013-05-18 06:30:00,
2013-05-18 01:35:00,66.3,62.0,29.92,SSE,147,0.0,0.0,86,0.00,,,0.00,Wunderground v.1.15,2013-05-18 06:35:00,
2013-05-18 01:40:00,66.3,62.3,29.92,SSE,148,0.0,0.0,87,0.00,,,0.00,Wunderground v.1.15,2013-05-18 06:40:00,
2013-05-18 01:45:00,66.3,62.3,29.92,SSE,148,0.0,0.0,87,0.00,,,0.00,Wunderground v.1.15,2013-05-18 06:45:00,
2013-05-18 01:50:00,66.2,62.2,29.92,SSE,147,0.0,0.0,87,0.00,,,0.00,Wunderground v.1.15,2013-05-18 06:50:00,
2013-05-18 02:00:00,66.0,62.3,29.92,SSE,147,0.0,0.0,88,0.00,,,0.00,Wunderground v.1.15,2013-05-18 07:00:00,
2013-05-18 02:05:00,65.8,62.1,29.92,SSE,147,0.0,0.0,88,0.00,,,0.00,Wunderground v.1.15,2013-05-18 07:05:00,
2013-05-18 02:15:00,65.8,62.1,29.92,SE,126,0.0,0.0,88,0.00,,,0.00,Wunderground v.1.15,2013-05-18 07:15:00,
2013-05-18 02:20:00,65.8,62.1,29.92,SE,126,0.0,0.0,88,0.00,,,0.00,Wunderground v.1.15,2013-05-18 07:20:00,
2013-05-18 02:25:00,65.7,62.0,29.92,SE,126,0.0,0.0,88,0.00,,,0.00,Wunderground v.1.15,2013-05-18 07:25:00,
2013-05-18 02:35:00,65.7,62.4,29.92,SE,126,0.0,0.0,89,0.00,,,0.00,Wunderground v.1.15,2013-05-18 07:35:00,
2013-05-18 02:45:00,65.7,62.4,29.92,SE,126,0.0,0.0,89,0.00,,,0.00,Wunderground v.1.15,2013-05-18 07:45:00,
2013-05-18 02:55:00,65.7,62.4,29.92,SE,126,0.0,0.0,89,0.00,,,0.00,Wunderground v.1.15,2013-05-18 07:55:00,
2013-05-18 03:00:00,65.5,62.2,29.92,SE,126,0.0,0.0,89,0.00,,,0.00,Wunderground v.1.15,2013-05-18 08:00:00,
2013-05-18 03:05:00,65.5,62.2,29.92,SSE,154,0.0,0.0,89,0.00,,,0.00,Wunderground v.1.15,2013-05-18 08:05:00,
2013-05-18 03:10:00,65.5,62.2,29.92,SSE,154,0.0,0.0,89,0.00,,,0.00,Wunderground v.1.15,2013-05-18 08:10:00,
2013-05-18 03:15:00,65.5,62.5,29.92,SSE,154,0.0,0.0,90,0.00,,,0.00,Wunderground v.1.15,2013-05-18 08:15:00,
2013-05-18 03:20:00,65.5,62.5,29.93,SSE,152,0.0,0.0,90,0.00,,,0.00,Wunderground v.1.15,2013-05-18 08:20:00,
2013-05-18 03:25:00,65.5,62.5,29.93,SSE,152,0.0,0.0,90,0.00,,,0.00,Wunderground v.1.15,2013-05-18 08:25:00,
2013-05-18 03:40:00,65.5,62.5,29.93,SSE,152,0.0,0.0,90,0.00,,,0.00,Wunderground v.1.15,2013-05-18 08:40:00,
2013-05-18 03:50:00,65.5,62.5,29.93,SSE,152,0.0,0.0,90,0.00,,,0.00,Wunderground v.1.15,2013-05-18 08:50:00,
2013-05-18 04:00:00,65.5,62.5,29.93,SSE,152,0.0,0.0,90,0.00,,,0.00,Wunderground v.1.15,2013-05-18 09:00:00,
2013-05-18 04:15:00,65.4,62.4,29.94,SSE,152,0.0,0.0,90,0.00,,,0.00,Wunderground v.1.15,2013-05-18 09:15:00,
2013-05-18 04:20:00,65.2,62.5,29.94,SSE,152,0.0,0.0,91,0.00,,,0.00,Wunderground v.1.15,2013-05-18 09:20:00,
2013-05-18 04:25:00,65.2,62.5,29.94,SSE,152,0.0,0.0,91,0.00,,,0.00,Wunderground v.1.15,2013-05-18 09:25:00,
2013-05-18 04:35:00,65.2,62.5,29.94,SSE,152,0.0,0.0,91,0.00,,,0.00,Wunderground v.1.15,2013-05-18 09:35:00,
2013-05-18 04:40:00,65.0,62.3,29.94,SSE,152,0.0,0.0,91,0.00,,,0.00,Wunderground v.1.15,2013-05-18 09:40:00,
2013-05-18 04:45:00,65.0,62.3,29.94,SSE,152,0.0,0.0,91,0.00,,,0.00,Wunderground v.1.15,2013-05-18 09:45:00,
2013-05-18 04:50:00,64.9,62.2,29.93,SSE,152,0.0,0.0,91,0.00,,,0.00,Wunderground v.1.15,2013-05-18 09:50:00,
2013-05-18 04:55:00,64.7,62.0,29.93,SSE,152,0.0,0.0,91,0.00,,,0.00,Wunderground v.1.15,2013-05-18 09:55:00,
2013-05-18 05:00:00,64.6,62.2,29.93,SSE,152,0.0,0.0,92,0.00,,,0.00,Wunderground v.1.15,2013-05-18 10:00:00,
2013-05-18 05:10:00,64.4,62.0,29.93,SSE,152,0.0,0.0,92,0.00,,,0.00,Wunderground v.1.15,2013-05-18 10:10:00,
2013-05-18 05:15:00,64.4,62.0,29.93,SSE,152,0.0,0.0,92,0.00,,,0.00,Wunderground v.1.15,2013-05-18 10:15:00,
2013-05-18 05:25:00,64.2,61.8,29.93,SSE,152,0.0,0.0,92,0.00,,,0.00,Wunderground v.1.15,2013-05-18 10:25:00,
2013-05-18 05:30:00,64.1,62.0,29.93,SSE,152,0.0,0.0,93,0.00,,,0.00,Wunderground v.1.15,2013-05-18 10:30:00,
2013-05-18 05:35:00,64.1,62.0,29.93,SSE,147,0.0,0.0,93,0.00,,,0.00,Wunderground v.1.15,2013-05-18 10:35:00,
2013-05-18 05:40:00,64.1,62.0,29.93,SE,145,0.0,0.0,93,0.00,,,0.00,Wunderground v.1.15,2013-05-18 10:40:00,
2013-05-18 05:45:00,63.9,61.8,29.93,SE,145,0.0,0.0,93,0.00,,,0.00,Wunderground v.1.15,2013-05-18 10:45:00,
2013-05-18 05:55:00,63.9,62.1,29.94,ESE,110,0.0,0.0,94,0.00,,,0.00,Wunderground v.1.15,2013-05-18 10:55:00,
2013-05-18 06:00:00,63.7,61.9,29.94,ESE,113,0.0,0.0,94,0.00,,,0.00,Wunderground v.1.15,2013-05-18 11:00:00,
2013-05-18 06:05:00,63.7,61.9,29.93,East,99,0.0,0.0,94,0.00,,,0.00,Wunderground v.1.15,2013-05-18 11:05:00,
2013-05-18 06:10:00,63.7,61.9,29.93,East,99,0.0,0.0,94,0.00,,,0.00,Wunderground v.1.15,2013-05-18 11:10:00,
2013-05-18 06:25:00,63.7,61.9,29.94,ESE,109,0.0,0.0,94,0.00,,,0.00,Wunderground v.1.15,2013-05-18 11:25:00,
2013-05-18 06:35:00,63.7,61.9,29.94,ESE,110,0.0,0.0,94,0.00,,,0.00,Wunderground v.1.15,2013-05-18 11:35:00,
2013-05-18 06:40:00,63.7,61.9,29.94,ESE,121,0.0,0.0,94,0.00,,,0.00,Wunderground v.1.15,2013-05-18 11:40:00,
2013-05-18 06:45:00,63.9,62.1,29.94,ESE,120,0.0,0.0,94,0.00,,,0.00,Wunderground v.1.15,2013-05-18 11:45:00,
2013-05-18 06:50:00,64.1,62.3,29.94,SE,141,0.0,0.0,94,0.00,,,0.00,Wunderground v.1.15,2013-05-18 11:50:00,
2013-05-18 06:55:00,64.1,62.3,29.94,SE,140,0.0,0.0,94,0.00,,,0.00,Wunderground v.1.15,2013-05-18 11:55:00,
2013-05-18 07:05:00,64.4,62.6,29.95,SE,131,0.0,0.0,94,0.00,,,0.00,Wunderground v.1.15,2013-05-18 12:05:00,
2013-05-18 07:15:00,64.7,62.6,29.95,ESE,112,0.0,0.0,93,0.00,,,0.00,Wunderground v.1.15,2013-05-18 12:15:00,
2013-05-18 07:25:00,65.2,62.8,29.95,South,189,0.0,0.0,92,0.00,,,0.00,Wunderground v.1.15,2013-05-18 12:25:00,
2013-05-18 07:40:00,65.8,63.4,29.95,SE,133,0.0,0.0,92,0.00,,,0.00,Wunderground v.1.15,2013-05-18 12:40:00,
2013-05-18 07:50:00,66.3,63.3,29.95,SE,126,0.0,0.0,90,0.00,,,0.00,Wunderground v.1.15,2013-05-18 12:50:00,
2013-05-18 08:00:00,66.8,63.5,29.95,SSE,154,1.0,1.0,89,0.00,,,0.00,Wunderground v.1.15,2013-05-18 13:00:00,
2013-05-18 08:05:00,67.0,63.3,29.96,SSE,154,1.0,1.0,88,0.00,,,0.00,Wunderground v.1.15,2013-05-18 13:05:00,
2013-05-18 08:15:00,67.3,63.3,29.96,SE,127,0.0,0.0,87,0.00,,,0.00,Wunderground v.1.15,2013-05-18 13:15:00,
2013-05-18 08:25:00,67.7,63.7,29.96,NE,41,0.0,0.0,87,0.00,,,0.00,Wunderground v.1.15,2013-05-18 13:25:00,
2013-05-18 08:30:00,68.0,63.7,29.96,ENE,78,0.0,0.0,86,0.00,,,0.00,Wunderground v.1.15,2013-05-18 13:30:00,
2013-05-18 08:40:00,68.5,63.8,29.96,SE,143,1.0,1.0,85,0.00,,,0.00,Wunderground v.1.15,2013-05-18 13:40:00,
2013-05-18 08:50:00,69.3,64.3,29.96,South,169,0.0,0.0,84,0.00,,,0.00,Wunderground v.1.15,2013-05-18 13:50:00,
2013-05-18 08:55:00,69.5,63.8,29.96,SSE,161,1.0,1.0,82,0.00,,,0.00,Wunderground v.1.15,2013-05-18 13:55:00,
2013-05-18 09:05:00,70.2,64.1,29.96,SE,130,0.0,0.0,81,0.00,,,0.00,Wunderground v.1.15,2013-05-18 14:05:00,
2013-05-18 09:15:00,71.0,64.2,29.96,SSE,161,1.0,1.0,79,0.00,,,0.00,Wunderground v.1.15,2013-05-18 14:15:00,
2013-05-18 09:25:00,71.7,64.1,29.96,South,185,1.0,1.0,77,0.00,,,0.00,Wunderground v.1.15,2013-05-18 14:25:00,
2013-05-18 09:30:00,72.1,64.1,29.96,SE,144,1.0,1.0,76,0.00,,,0.00,Wunderground v.1.15,2013-05-18 14:30:00,
2013-05-18 09:35:00,72.1,63.7,29.96,SE,130,1.0,5.0,75,0.00,,,0.00,Wunderground v.1.15,2013-05-18 14:35:00,
2013-05-18 09:40:00,72.4,64.0,29.96,SE,141,0.0,5.0,75,0.00,,,0.00,Wunderground v.1.15,2013-05-18 14:40:00,
2013-05-18 09:50:00,73.4,64.2,29.95,SE,133,1.0,1.0,73,0.00,,,0.00,Wunderground v.1.15,2013-05-18 14:50:00,
2013-05-18 10:00:00,74.1,64.5,29.95,South,169,2.0,2.0,72,0.00,,,0.00,Wunderground v.1.15,2013-05-18 15:00:00,
2013-05-18 10:10:00,74.0,64.0,29.95,SE,127,1.0,1.0,71,0.00,,,0.00,Wunderground v.1.15,2013-05-18 15:10:00,
2013-05-18 10:15:00,74.1,64.9,29.95,SSW,200,0.0,1.0,73,0.00,,,0.00,Wunderground v.1.15,2013-05-18 15:15:00,
2013-05-18 10:20:00,74.7,64.7,29.94,SSE,164,0.0,0.0,71,0.00,,,0.00,Wunderground v.1.15,2013-05-18 15:20:00,
2013-05-18 10:25:00,74.7,63.9,29.94,SSW,210,1.0,4.0,69,0.00,,,0.00,Wunderground v.1.15,2013-05-18 15:25:00,
2013-05-18 10:35:00,75.4,64.5,29.95,SSE,160,1.0,1.0,69,0.00,,,0.00,Wunderground v.1.15,2013-05-18 15:35:00,
2013-05-18 10:45:00,75.2,63.1,29.95,East,80,1.0,1.0,66,0.00,,,0.00,Wunderground v.1.15,2013-05-18 15:45:00,
2013-05-18 10:55:00,75.7,63.1,29.95,SE,131,1.0,1.0,65,0.00,,,0.00,Wunderground v.1.15,2013-05-18 15:55:00,
2013-05-18 11:05:00,76.6,63.1,29.95,SE,124,1.0,6.0,63,0.00,,,0.00,Wunderground v.1.15,2013-05-18 16:05:00,
2013-05-18 11:10:00,77.0,63.4,29.95,SE,137,2.0,6.0,63,0.00,,,0.00,Wunderground v.1.15,2013-05-18 16:10:00,
2013-05-18 11:20:00,77.7,63.2,29.95,SSE,148,1.0,1.0,61,0.00,,,0.00,Wunderground v.1.15,2013-05-18 16:20:00,
2013-05-18 11:25:00,77.9,63.4,29.95,SSE,151,1.0,1.0,61,0.00,,,0.00,Wunderground v.1.15,2013-05-18 16:25:00,
2013-05-18 11:40:00,76.4,62.9,29.95,SE,138,1.0,7.0,63,0.00,,,0.00,Wunderground v.1.15,2013-05-18 16:40:00,
2013-05-18 11:45:00,75.9,62.4,29.95,SW,229,1.0,7.0,63,0.00,,,0.00,Wunderground v.1.15,2013-05-18 16:45:00,
2013-05-18 11:55:00,76.1,62.6,29.95,SSW,208,1.0,7.0,63,0.00,,,0.00,Wunderground v.1.15,2013-05-18 16:55:00,
2013-05-18 12:05:00,76.1,63.0,29.94,SSE,147,1.0,1.0,64,0.00,,,0.00,Wunderground v.1.15,2013-05-18 17:05:00,
2013-05-18 12:10:00,76.8,64.6,29.94,SSE,150,2.0,5.0,66,0.00,,,0.00,Wunderground v.1.15,2013-05-18 17:10:00,
2013-05-18 12:25:00,78.0,62.5,29.94,SE,144,1.0,1.0,59,0.00,,,0.00,Wunderground v.1.15,2013-05-18 17:25:00,
2013-05-18 12:30:00,77.7,61.7,29.94,SE,141,1.0,1.0,58,0.00,,,0.00,Wunderground v.1.15,2013-05-18 17:30:00,
2013-05-18 12:35:00,77.7,63.2,29.93,SSE,147,1.0,6.0,61,0.00,,,0.00,Wunderground v.1.15,2013-05-18 17:35:00,
2013-05-18 12:40:00,78.4,62.9,29.93,SSE,147,2.0,6.0,59,0.00,,,0.00,Wunderground v.1.15,2013-05-18 17:40:00,
2013-05-18 12:45:00,78.4,62.9,29.93,South,191,1.0,1.0,59,0.00,,,0.00,Wunderground v.1.15,2013-05-18 17:45:00,
2013-05-18 12:55:00,77.9,62.9,29.92,South,186,0.0,0.0,60,0.00,,,0.00,Wunderground v.1.15,2013-05-18 17:55:00,
2013-05-18 13:05:00,78.2,63.2,29.92,ESE,120,1.0,1.0,60,0.00,,,0.00,Wunderground v.1.15,2013-05-18 18:05:00,
2013-05-18 13:10:00,78.6,63.6,29.92,SE,137,1.0,1.0,60,0.00,,,0.00,Wunderground v.1.15,2013-05-18 18:10:00,
2013-05-18 13:20:00,78.2,61.2,29.91,ESE,123,0.0,0.0,56,0.00,,,0.00,Wunderground v.1.15,2013-05-18 18:20:00,
2013-05-18 13:30:00,77.7,62.2,29.91,ESE,113,0.0,0.0,59,0.00,,,0.00,Wunderground v.1.15,2013-05-18 18:30:00,
2013-05-18 13:35:00,77.9,60.9,29.90,East,80,0.0,0.0,56,0.00,,,0.00,Wunderground v.1.15,2013-05-18 18:35:00,
2013-05-18 13:40:00,77.9,61.4,29.90,South,176,0.0,0.0,57,0.00,,,0.00,Wunderground v.1.15,2013-05-18 18:40:00,
2013-05-18 13:55:00,78.6,61.6,29.90,East,88,2.0,2.0,56,0.00,,,0.00,Wunderground v.1.15,2013-05-18 18:55:00,
2013-05-18 14:05:00,78.0,61.5,29.89,SSE,165,1.0,1.0,57,0.00,,,0.00,Wunderground v.1.15,2013-05-18 19:05:00,
2013-05-18 14:10:00,78.4,61.9,29.89,ENE,68,0.0,1.0,57,0.00,,,0.00,Wunderground v.1.15,2013-05-18 19:10:00,
2013-05-18 14:20:00,79.2,60.6,29.89,East,99,1.0,1.0,53,0.00,,,0.00,Wunderground v.1.15,2013-05-18 19:20:00,
2013-05-18 14:35:00,79.9,61.8,29.89,SSE,148,1.0,1.0,54,0.00,,,0.00,Wunderground v.1.15,2013-05-18 19:35:00,
2013-05-18 14:50:00,81.4,62.1,29.89,SW,217,2.0,2.0,52,0.00,,,0.00,Wunderground v.1.15,2013-05-18 19:50:00,
2013-05-18 14:55:00,81.6,61.2,29.89,SE,137,1.0,2.0,50,0.00,,,0.00,Wunderground v.1.15,2013-05-18 19:55:00,
2013-05-18 15:05:00,80.1,60.9,29.89,South,184,0.0,0.0,52,0.00,,,0.00,Wunderground v.1.15,2013-05-18 20:05:00,
2013-05-18 15:10:00,79.7,60.5,29.89,East,95,0.0,0.0,52,0.00,,,0.00,Wunderground v.1.15,2013-05-18 20:10:00,
2013-05-18 15:20:00,78.6,60.0,29.89,SSE,165,0.0,0.0,53,0.00,,,0.00,Wunderground v.1.15,2013-05-18 20:20:00,
2013-05-18 15:30:00,80.1,62.5,29.89,ENE,68,0.0,0.0,55,0.00,,,0.00,Wunderground v.1.15,2013-05-18 20:30:00,
2013-05-18 15:35:00,79.7,60.0,29.89,NNE,18,0.0,0.0,51,0.00,,,0.00,Wunderground v.1.15,2013-05-18 20:35:00,
2013-05-18 15:40:00,79.3,60.7,29.89,South,185,1.0,1.0,53,0.00,,,0.00,Wunderground v.1.15,2013-05-18 20:40:00,
2013-05-18 15:55:00,78.8,61.3,29.89,SSE,167,1.0,1.0,55,0.00,,,0.00,Wunderground v.1.15,2013-05-18 20:55:00,
2013-05-18 16:05:00,79.3,61.2,29.89,East,88,0.0,0.0,54,0.00,,,0.00,Wunderground v.1.15,2013-05-18 21:05:00,
2013-05-18 16:10:00,79.2,61.1,29.89,NE,52,0.0,0.0,54,0.00,,,0.00,Wunderground v.1.15,2013-05-18 21:10:00,
2013-05-18 16:20:00,79.2,61.6,29.88,ENE,64,0.0,0.0,55,0.00,,,0.00,Wunderground v.1.15,2013-05-18 21:20:00,
2013-05-18 16:30:00,79.7,60.0,29.88,SSE,152,0.0,0.0,51,0.00,,,0.00,Wunderground v.1.15,2013-05-18 21:30:00,
2013-05-18 16:40:00,79.7,60.0,29.88,SE,143,0.0,0.0,51,0.00,,,0.00,Wunderground v.1.15,2013-05-18 21:40:00,
2013-05-18 16:50:00,80.1,62.0,29.87,South,169,2.0,6.0,54,0.00,,,0.00,Wunderground v.1.15,2013-05-18 21:50:00,
2013-05-18 16:55:00,80.5,60.7,29.87,SSW,193,3.0,6.0,51,0.00,,,0.00,Wunderground v.1.15,2013-05-18 21:55:00,
2013-05-18 17:10:00,79.7,60.0,29.87,SSW,200,2.0,2.0,51,0.00,,,0.00,Wunderground v.1.15,2013-05-18 22:10:00,
2013-05-18 17:20:00,80.1,59.8,29.87,SSE,161,0.0,0.0,50,0.00,,,0.00,Wunderground v.1.15,2013-05-18 22:20:00,
2013-05-18 17:25:00,80.1,59.8,29.87,SW,215,1.0,1.0,50,0.00,,,0.00,Wunderground v.1.15,2013-05-18 22:25:00,
2013-05-18 17:35:00,80.1,60.3,29.86,ESE,116,2.0,2.0,51,0.00,,,0.00,Wunderground v.1.15,2013-05-18 22:35:00,
2013-05-18 17:40:00,80.1,60.9,29.86,SSW,198,2.0,11.0,52,0.00,,,0.00,Wunderground v.1.15,2013-05-18 22:40:00,
2013-05-18 17:50:00,79.9,60.7,29.86,South,175,2.0,2.0,52,0.00,,,0.00,Wunderground v.1.15,2013-05-18 22:50:00,
2013-05-18 18:00:00,79.9,61.8,29.86,SSW,192,1.0,1.0,54,0.00,,,0.00,Wunderground v.1.15,2013-05-18 23:00:00,
2013-05-18 18:10:00,79.7,60.0,29.86,SE,143,2.0,2.0,51,0.00,,,0.00,Wunderground v.1.15,2013-05-18 23:10:00,
2013-05-18 18:15:00,79.5,59.8,29.86,SSW,203,3.0,3.0,51,0.00,,,0.00,Wunderground v.1.15,2013-05-18 23:15:00,
2013-05-18 18:25:00,79.3,60.1,29.86,SSE,155,3.0,3.0,52,0.00,,,0.00,Wunderground v.1.15,2013-05-18 23:25:00,
2013-05-18 18:30:00,79.2,60.1,29.86,SE,144,1.0,5.0,52,0.00,,,0.00,Wunderground v.1.15,2013-05-18 23:30:00,
2013-05-18 18:45:00,79.0,59.9,29.86,SSE,161,2.0,2.0,52,0.00,,,0.00,Wunderground v.1.15,2013-05-18 23:45:00,
2013-05-18 18:55:00,78.8,60.2,29.85,South,169,1.0,1.0,53,0.00,,,0.00,Wunderground v.1.15,2013-05-18 23:55:00,
2013-05-18 19:10:00,78.4,60.4,29.85,South,188,1.0,2.0,54,0.00,,,0.00,Wunderground v.1.15,2013-05-19 00:10:00,
2013-05-18 19:15:00,78.4,60.4,29.85,South,181,1.0,2.0,54,0.00,,,0.00,Wunderground v.1.15,2013-05-19 00:15:00,
2013-05-18 19:25:00,78.0,60.0,29.86,SSE,167,0.0,0.0,54,0.00,,,0.00,Wunderground v.1.15,2013-05-19 00:25:00,
2013-05-18 19:35:00,77.7,59.7,29.86,SSW,202,1.0,1.0,54,0.00,,,0.00,Wunderground v.1.15,2013-05-19 00:35:00,
2013-05-18 19:50:00,77.3,59.9,29.86,SSE,168,1.0,1.0,55,0.00,,,0.00,Wunderground v.1.15,2013-05-19 00:50:00,
2013-05-18 20:05:00,76.6,59.7,29.86,SE,140,0.0,0.0,56,0.00,,,0.00,Wunderground v.1.15,2013-05-19 01:05:00,
2013-05-18 20:10:00,76.4,60.0,29.86,SSE,148,0.0,0.0,57,0.00,,,0.00,Wunderground v.1.15,2013-05-19 01:10:00,
2013-05-18 20:15:00,76.1,60.2,29.86,SE,141,0.0,2.0,58,0.00,,,0.00,Wunderground v.1.15,2013-05-19 01:15:00,
2013-05-18 20:25:00,75.7,59.9,29.85,SSE,152,0.0,0.0,58,0.00,,,0.00,Wunderground v.1.15,2013-05-19 01:25:00,
2013-05-18 20:30:00,75.5,60.2,29.85,SSE,152,0.0,0.0,59,0.00,,,0.00,Wunderground v.1.15,2013-05-19 01:30:00,
2013-05-18 20:35:00,75.2,59.9,29.85,SSE,152,0.0,0.0,59,0.00,,,0.00,Wunderground v.1.15,2013-05-19 01:35:00,
2013-05-18 20:40:00,75.0,60.2,29.85,SSE,147,0.0,0.0,60,0.00,,,0.00,Wunderground v.1.15,2013-05-19 01:40:00,
2013-05-18 20:50:00,74.5,60.2,29.85,SSE,147,0.0,0.0,61,0.00,,,0.00,Wunderground v.1.15,2013-05-19 01:50:00,
2013-05-18 20:55:00,74.3,60.0,29.85,SSE,147,0.0,0.0,61,0.00,,,0.00,Wunderground v.1.15,2013-05-19 01:55:00,
2013-05-18 21:05:00,73.8,60.4,29.85,SSE,147,0.0,0.0,63,0.00,,,0.00,Wunderground v.1.15,2013-05-19 02:05:00,
2013-05-18 21:10:00,73.6,60.2,29.85,SSE,147,0.0,0.0,63,0.00,,,0.00,Wunderground v.1.15,2013-05-19 02:10:00,
2013-05-18 21:25:00,72.7,60.3,29.85,SSE,147,0.0,0.0,65,0.00,,,0.00,Wunderground v.1.15,2013-05-19 02:25:00,
2013-05-18 21:35:00,72.4,60.4,29.84,SSE,147,0.0,0.0,66,0.00,,,0.00,Wunderground v.1.15,2013-05-19 02:35:00,
2013-05-18 21:45:00,71.9,60.8,29.84,SSE,147,0.0,0.0,68,0.00,,,0.00,Wunderground v.1.15,2013-05-19 02:45:00,
2013-05-18 21:50:00,71.9,60.8,29.84,SSE,147,0.0,0.0,68,0.00,,,0.00,Wunderground v.1.15,2013-05-19 02:50:00,
2013-05-18 22:05:00,71.7,60.6,29.84,SSE,147,0.0,0.0,68,0.00,,,0.00,Wunderground v.1.15,2013-05-19 03:05:00,
2013-05-18 22:15:00,71.4,60.7,29.84,SSE,147,0.0,0.0,69,0.00,,,0.00,Wunderground v.1.15,2013-05-19 03:15:00,
2013-05-18 22:20:00,71.2,60.5,29.84,SSE,147,0.0,0.0,69,0.00,,,0.00,Wunderground v.1.15,2013-05-19 03:20:00,
2013-05-18 22:30:00,71.4,60.3,29.84,SSE,147,0.0,0.0,68,0.00,,,0.00,Wunderground v.1.15,2013-05-19 03:30:00,
2013-05-18 22:40:00,71.5,60.4,29.83,SSE,147,0.0,0.0,68,0.00,,,0.00,Wunderground v.1.15,2013-05-19 03:40:00,
2013-05-18 22:50:00,71.5,60.4,29.84,SE,144,0.0,0.0,68,0.00,,,0.00,Wunderground v.1.15,2013-05-19 03:50:00,
2013-05-18 23:00:00,71.4,60.3,29.84,SE,140,0.0,0.0,68,0.00,,,0.00,Wunderground v.1.15,2013-05-19 04:00:00,
2013-05-18 23:05:00,71.2,60.5,29.83,SE,134,0.0,0.0,69,0.00,,,0.00,Wunderground v.1.15,2013-05-19 04:05:00,
2013-05-18 23:15:00,71.2,60.5,29.83,SE,134,0.0,0.0,69,0.00,,,0.00,Wunderground v.1.15,2013-05-19 04:15:00,
2013-05-18 23:25:00,70.9,60.6,29.84,SE,134,0.0,0.0,70,0.00,,,0.00,Wunderground v.1.15,2013-05-19 04:25:00,
2013-05-18 23:30:00,70.7,60.4,29.84,SE,137,0.0,0.0,70,0.00,,,0.00,Wunderground v.1.15,2013-05-19 04:30:00,
2013-05-18 23:40:00,70.5,60.6,29.84,SE,136,0.0,0.0,71,0.00,,,0.00,Wunderground v.1.15,2013-05-19 04:40:00,
2013-05-18 23:45:00,70.3,60.4,29.84,SE,136,0.0,0.0,71,0.00,,,0.00,Wunderground v.1.15,2013-05-19 04:45:00,
2013-05-18 23:55:00,70.0,60.6,29.84,SSE,147,0.0,0.0,72,0.00,,,0.00,Wunderground v.1.15,2013-05-19 04:55:00,